Terminal Aerodrome Forecast
Issued by NWS

Home | Current Version | Previous Version | Text Only | Print | Product List | Glossary On
Versions: 1 2 3 4 5 6 7 8 9 10 11 12 13 14 15 16 17 18 19 20
000
FTUS43 KPAH 011739
TAFCGI
TAF
KCGI 011739Z 0118/0218 32004KT 4SM BR BKN011 OVC021
     FM012300 35005KT 6SM BR BKN022 OVC035
     FM020400 36006KT P6SM FEW070 SCT150
     FM020600 36006KT P6SM SKC=

USA.gov is the U.S. government's official web portal to all federal, state and local government web resources and services.